Time;durP1;ratioP1;P1;durP2;ratioP2;P2;SDS_P1;SDS_P2;PMS_P1;PMS_P2;Temp;Humidity;BMP_temperature;BMP_pressure;BME280_temperature;BME280_humidity;BME280_pressure;Samples;Min_cycle;Max_cycle;Signal;HPM_P1;HPM_P2
2021/09/02 00:00:12;;;;;;;16.48;7.80;;;;;;;15.22;72.20;102084.22;693163;28;21539;-66
2021/09/02 00:00:33;;;;;;;8.30;7.50;;;;;;;15.22;72.30;102084.22;690649;28;45270;-67
2021/09/02 00:00:55;;;;;;;7.95;7.25;;;;;;;15.20;72.26;102083.50;691713;28;46335;-68
2021/09/02 00:01:16;;;;;;;8.10;7.40;;;;;;;15.19;72.36;102078.25;690895;28;45075;-67
2021/09/02 00:01:37;;;;;;;7.82;7.22;;;;;;;15.19;72.30;102076.41;691635;28;23505;-67
2021/09/02 00:02:00;;;;;;;7.32;6.72;;;;;;;15.21;72.42;102081.66;692244;28;22406;-67
2021/09/02 00:02:22;;;;;;;7.85;7.05;;;;;;;15.19;72.52;102070.09;690339;28;68321;-67
2021/09/02 00:02:43;;;;;;;8.93;7.45;;;;;;;15.19;72.52;102081.84;691702;28;44432;-67
2021/09/02 00:03:04;;;;;;;8.25;7.32;;;;;;;15.20;72.48;102082.69;692450;28;22489;-67
2021/09/02 00:03:25;;;;;;;8.43;7.32;;;;;;;15.20;72.66;102088.13;692089;28;23479;-67
2021/09/02 00:03:47;;;;;;;8.13;7.32;;;;;;;15.17;72.44;102078.41;692137;28;21703;-67
2021/09/02 00:04:08;;;;;;;7.93;7.13;;;;;;;15.19;72.45;102076.41;691531;28;44533;-68
2021/09/02 00:04:30;;;;;;;8.07;7.28;;;;;;;15.19;72.68;102084.56;692471;28;22273;-68
2021/09/02 00:04:51;;;;;;;8.18;7.38;;;;;;;15.17;72.46;102074.88;692555;28;23558;-67
2021/09/02 00:05:13;;;;;;;7.93;7.13;;;;;;;15.19;72.77;102078.25;691547;28;45217;-68
2021/09/02 00:05:34;;;;;;;7.63;6.82;;;;;;;15.17;72.69;102083.03;690883;28;46341;-66
2021/09/02 00:05:55;;;;;;;8.43;7.45;;;;;;;15.17;72.56;102072.13;691570;28;47014;-67
2021/09/02 00:06:16;;;;;;;8.35;7.55;;;;;;;15.14;72.61;102073.34;692511;28;20697;-67
2021/09/02 00:06:38;;;;;;;8.25;7.47;;;;;;;15.17;72.74;102083.03;692455;28;23666;-67
2021/09/02 00:06:59;;;;;;;8.18;7.38;;;;;;;15.17;72.76;102083.88;691492;28;46321;-68
2021/09/02 00:07:21;;;;;;;8.40;7.60;;;;;;;15.16;72.87;102084.03;691813;28;22400;-67
2021/09/02 00:07:43;;;;;;;8.80;7.90;;;;;;;15.13;72.73;102074.38;691093;28;22419;-67
2021/09/02 00:08:05;;;;;;;8.93;8.05;;;;;;;15.14;72.73;102076.06;691647;28;46329;-68
2021/09/02 00:08:26;;;;;;;8.32;7.53;;;;;;;15.12;72.65;102083.53;691448;28;44414;-67
2021/09/02 00:08:47;;;;;;;8.07;7.28;;;;;;;15.11;72.87;102081.88;691699;28;23453;-67
2021/09/02 00:09:09;;;;;;;8.25;7.45;;;;;;;15.11;72.86;102076.44;691356;28;46311;-67
2021/09/02 00:09:30;;;;;;;8.68;7.80;;;;;;;15.09;72.82;102078.44;691586;28;45073;-68
2021/09/02 00:09:51;;;;;;;8.07;7.28;;;;;;;15.10;73.07;102080.16;692139;28;22314;-67
2021/09/02 00:10:12;;;;;;;10.50;7.63;;;;;;;15.08;72.81;102083.06;692157;28;22452;-68
2021/09/02 00:10:35;;;;;;;11.38;7.68;;;;;;;15.09;73.01;102078.44;692017;28;21542;-67
2021/09/02 00:10:57;;;;;;;8.80;7.90;;;;;;;15.08;73.16;102085.78;691320;28;44406;-67
2021/09/02 00:11:18;;;;;;;8.82;7.97;;;;;;;15.07;73.09;102081.34;690131;28;69411;-67
2021/09/02 00:11:39;;;;;;;8.98;7.65;;;;;;;15.07;73.26;102084.06;692099;28;21423;-67
2021/09/02 00:12:02;;;;;;;8.32;7.32;;;;;;;15.06;73.41;102079.66;692442;28;21528;-67
2021/09/02 00:12:23;;;;;;;8.13;7.30;;;;;;;15.07;73.04;102080.50;690500;28;46297;-66
2021/09/02 00:12:44;;;;;;;8.20;7.32;;;;;;;15.05;73.15;102080.69;692191;28;21537;-68
2021/09/02 00:13:05;;;;;;;9.45;7.95;;;;;;;15.07;73.07;102083.22;692117;28;23279;-67
2021/09/02 00:13:27;;;;;;;9.63;7.93;;;;;;;15.06;73.06;102084.25;691010;28;46338;-67
2021/09/02 00:13:49;;;;;;;9.88;7.82;;;;;;;15.05;73.22;102082.56;691284;28;46344;-67
2021/09/02 00:14:10;;;;;;;8.77;7.88;;;;;;;15.03;73.42;102077.28;692057;28;21548;-67
2021/09/02 00:14:32;;;;;;;8.45;7.57;;;;;;;15.01;73.29;102079.31;692472;28;22407;-67
2021/09/02 00:14:53;;;;;;;8.23;7.43;;;;;;;15.03;73.23;102085.47;691171;28;46315;-67
2021/09/02 00:15:14;;;;;;;7.95;7.25;;;;;;;15.03;73.23;102085.47;691577;28;22396;-67
2021/09/02 00:15:35;;;;;;;8.25;7.45;;;;;;;15.02;73.42;102074.75;691696;28;21084;-67
2021/09/02 00:15:57;;;;;;;8.63;7.72;;;;;;;15.05;73.72;102083.41;691918;28;22358;-67
2021/09/02 00:16:18;;;;;;;8.85;8.00;;;;;;;15.04;73.61;102078.97;690740;28;44172;-67
2021/09/02 00:16:40;;;;;;;8.35;7.55;;;;;;;15.08;73.65;102083.06;692225;28;23737;-67
2021/09/02 00:17:01;;;;;;;7.95;7.25;;;;;;;15.08;73.63;102082.22;691493;28;47227;-68
2021/09/02 00:17:23;;;;;;;7.90;7.20;;;;;;;15.09;73.49;102087.47;692120;28;22594;-67
2021/09/02 00:17:44;;;;;;;8.20;7.20;;;;;;;15.08;73.40;102080.34;690772;28;46313;-68
2021/09/02 00:18:05;;;;;;;8.13;7.38;;;;;;;15.12;73.30;102089.00;691689;28;23404;-67
2021/09/02 00:18:27;;;;;;;10.40;7.53;;;;;;;15.10;73.27;102083.72;691355;28;46325;-67
2021/09/02 00:18:49;;;;;;;8.68;7.53;;;;;;;15.13;73.44;102083.38;691996;28;22414;-67
2021/09/02 00:19:10;;;;;;;8.63;7.82;;;;;;;15.12;73.45;102078.97;691617;28;44402;-68
2021/09/02 00:19:33;;;;;;;8.40;7.60;;;;;;;15.13;73.50;102077.09;691318;28;46585;-67
2021/09/02 00:19:54;;;;;;;8.13;7.38;;;;;;;15.13;73.35;102080.66;691280;28;46155;-67
2021/09/02 00:20:16;;;;;;;8.95;7.13;;;;;;;15.14;73.28;102082.34;692303;28;22325;-68
2021/09/02 00:20:37;;;;;;;9.52;7.43;;;;;;;15.14;73.42;102079.63;691228;28;45192;-68
2021/09/02 00:20:58;;;;;;;9.65;7.57;;;;;;;15.12;73.18;102076.25;692373;28;21340;-67
2021/09/02 00:21:19;;;;;;;8.38;7.30;;;;;;;15.13;73.26;102080.66;691485;28;22399;-67
2021/09/02 00:21:41;;;;;;;8.32;7.55;;;;;;;15.14;73.20;102079.63;691927;28;23425;-67
2021/09/02 00:22:02;;;;;;;8.30;7.45;;;;;;;15.14;73.34;102076.91;690927;28;45250;-68
2021/09/02 00:22:23;;;;;;;8.15;7.28;;;;;;;15.13;73.13;102083.38;691937;28;21344;-67
2021/09/02 00:22:45;;;;;;;8.65;7.85;;;;;;;15.13;73.11;102082.53;692362;28;22398;-66
2021/09/02 00:23:07;;;;;;;8.75;7.85;;;;;;;15.12;73.25;102084.41;691600;28;46288;-66
2021/09/02 00:23:28;;;;;;;8.98;7.70;;;;;;;15.09;73.09;102082.03;691666;28;46323;-66
2021/09/02 00:23:49;;;;;;;8.32;7.43;;;;;;;15.09;73.17;102082.03;691581;28;23614;-65
2021/09/02 00:24:10;;;;;;;8.57;7.68;;;;;;;15.09;73.38;102084.75;692312;28;23471;-67
2021/09/02 00:24:32;;;;;;;8.63;7.70;;;;;;;15.08;73.34;102091.22;692424;28;22434;-67
2021/09/02 00:24:53;;;;;;;8.00;7.20;;;;;;;15.07;73.18;102084.06;691342;28;45946;-65
2021/09/02 00:25:14;;;;;;;8.60;7.70;;;;;;;15.06;73.27;102082.38;692370;28;22411;-66
2021/09/02 00:25:36;;;;;;;8.52;7.65;;;;;;;15.06;73.45;102090.56;691771;28;21510;-66
2021/09/02 00:25:59;;;;;;;8.18;7.47;;;;;;;15.05;73.30;102091.56;692421;28;22423;-66
2021/09/02 00:26:20;;;;;;;8.07;7.38;;;;;;;15.03;73.54;102093.63;689673;28;90429;-67
2021/09/02 00:26:43;;;;;;;8.50;7.80;;;;;;;15.02;73.56;102083.75;692213;28;22382;-67
2021/09/02 00:27:04;;;;;;;8.25;7.55;;;;;;;15.04;73.44;102095.28;692497;28;67495;-66
2021/09/02 00:27:26;;;;;;;8.55;7.55;;;;;;;15.03;73.29;102095.47;690443;28;21494;-67
2021/09/02 00:27:47;;;;;;;9.15;7.38;;;;;;;15.02;73.61;102089.19;689075;28;45300;-67
2021/09/02 00:28:08;;;;;;;8.00;7.20;;;;;;;15.01;73.74;102101.09;690220;28;44398;-67
2021/09/02 00:28:30;;;;;;;8.30;7.50;;;;;;;14.98;73.56;102089.72;690260;28;43911;-67
2021/09/02 00:28:51;;;;;;;8.45;7.60;;;;;;;14.99;73.40;102096.84;689309;28;44423;-66
2021/09/02 00:29:13;;;;;;;8.27;7.45;;;;;;;14.99;73.74;102092.25;691019;28;23341;-65
2021/09/02 00:29:34;;;;;;;10.00;8.23;;;;;;;14.96;73.72;102088.00;691472;28;44443;-66
2021/09/02 00:29:55;;;;;;;11.70;7.55;;;;;;;14.98;73.94;102097.88;691485;28;22379;-67
2021/09/02 00:30:16;;;;;;;9.50;7.75;;;;;;;14.93;73.76;102095.66;691951;28;23459;-66
2021/09/02 00:30:39;;;;;;;8.40;7.60;;;;;;;14.96;73.75;102095.31;692364;28;21533;-67
2021/09/02 00:31:00;;;;;;;8.10;7.30;;;;;;;14.96;74.01;102098.03;690606;28;70224;-66
2021/09/02 00:31:21;;;;;;;8.32;7.53;;;;;;;14.95;73.86;102094.47;691471;28;23236;-67
2021/09/02 00:31:42;;;;;;;8.40;7.53;;;;;;;14.91;73.96;102087.69;692464;28;21556;-67
2021/09/02 00:32:05;;;;;;;8.70;7.80;;;;;;;14.95;73.87;102094.47;692447;28;22392;-67
2021/09/02 00:32:26;;;;;;;8.68;7.80;;;;;;;14.96;74.00;102093.44;690375;28;70770;-66
2021/09/02 00:32:47;;;;;;;7.68;6.97;;;;;;;14.95;74.14;102091.75;692247;28;22413;-67
2021/09/02 00:33:14;;;;;;;8.30;7.40;;;;;;;14.95;74.28;102090.91;692112;28;22251;-66
2021/09/02 00:33:36;;;;;;;8.65;7.75;;;;;;;14.97;74.12;102097.03;688168;28;138095;-67
2021/09/02 00:33:57;;;;;;;8.60;7.80;;;;;;;14.96;73.96;102095.31;691100;28;45272;-67
2021/09/02 00:34:18;;;;;;;8.70;7.80;;;;;;;14.93;74.29;102087.50;691502;28;24327;-66
2021/09/02 00:34:39;;;;;;;8.63;7.65;;;;;;;14.95;74.07;102093.63;692364;28;22327;-68
2021/09/02 00:35:01;;;;;;;8.57;7.78;;;;;;;14.96;74.08;102098.88;692333;28;21516;-66
2021/09/02 00:35:22;;;;;;;9.40;7.40;;;;;;;14.96;74.07;102098.03;691004;28;46355;-66
2021/09/02 00:35:44;;;;;;;10.00;7.50;;;;;;;14.96;74.09;102093.44;692477;28;22440;-67
2021/09/02 00:36:05;;;;;;;9.10;8.05;;;;;;;14.96;74.19;102098.88;691766;28;45372;-67
2021/09/02 00:36:27;;;;;;;8.75;7.85;;;;;;;14.96;74.09;102098.88;692316;28;23417;-66
2021/09/02 00:36:48;;;;;;;8.48;7.68;;;;;;;14.96;73.96;102098.03;691388;28;46431;-66
2021/09/02 00:37:09;;;;;;;8.90;8.00;;;;;;;14.96;74.03;102096.16;692511;28;21302;-67
2021/09/02 00:37:30;;;;;;;8.40;7.55;;;;;;;14.98;74.38;102096.00;692418;28;22258;-66
2021/09/02 00:37:52;;;;;;;8.68;7.78;;;;;;;14.99;74.09;102094.13;691809;28;21350;-67
2021/09/02 00:38:13;;;;;;;7.97;7.28;;;;;;;15.00;74.08;102101.25;691393;28;45202;-66
2021/09/02 00:38:35;;;;;;;8.98;7.40;;;;;;;15.01;74.06;102095.66;692236;28;23469;-67
2021/09/02 00:38:56;;;;;;;9.57;7.57;;;;;;;15.01;74.36;102097.53;691369;28;44558;-67
2021/09/02 00:39:18;;;;;;;8.55;7.53;;;;;;;15.04;74.09;102094.47;692091;28;22334;-67
2021/09/02 00:39:39;;;;;;;10.02;7.97;;;;;;;15.04;73.99;102098.03;691639;28;46220;-67
2021/09/02 00:40:00;;;;;;;8.93;7.78;;;;;;;15.05;74.08;102098.88;692065;28;22424;-66
2021/09/02 00:40:24;;;;;;;9.05;7.72;;;;;;;15.04;74.25;102092.56;691926;28;22381;-68
2021/09/02 00:40:45;;;;;;;8.30;7.50;;;;;;;15.05;73.93;102097.00;689785;28;92142;-67
2021/09/02 00:41:08;;;;;;;8.20;7.40;;;;;;;15.06;73.95;102103.28;692579;28;22383;-66
2021/09/02 00:41:29;;;;;;;8.20;7.50;;;;;;;15.06;73.99;102095.13;690119;28;65546;-67
2021/09/02 00:41:51;;;;;;;8.52;7.72;;;;;;;15.06;73.80;102095.13;692310;28;44598;-66
2021/09/02 00:42:12;;;;;;;8.60;7.70;;;;;;;15.05;73.82;102091.56;691000;28;44165;-66
2021/09/02 00:42:33;;;;;;;7.75;7.05;;;;;;;15.06;73.78;102095.13;693148;28;22407;-66
2021/09/02 00:42:54;;;;;;;7.55;6.95;;;;;;;15.07;73.80;102094.13;692964;28;21522;-67
2021/09/02 00:43:16;;;;;;;7.82;7.10;;;;;;;15.06;73.81;102097.84;692668;28;23401;-67
2021/09/02 00:43:37;;;;;;;8.40;7.50;;;;;;;15.06;73.82;102095.13;692205;28;46102;-66
2021/09/02 00:43:58;;;;;;;9.93;7.35;;;;;;;15.06;73.92;102093.28;693033;28;22399;-67
2021/09/02 00:44:42;;;;;;;7.90;7.10;;;;;;;15.05;73.83;102101.59;692918;28;23485;-67
2021/09/02 00:45:04;;;;;;;8.80;7.78;;;;;;;15.04;73.63;102095.28;681591;28;137325;-66
2021/09/02 00:45:25;;;;;;;8.20;7.40;;;;;;;15.04;73.89;102098.03;691319;28;44434;-67
2021/09/02 00:45:46;;;;;;;8.35;7.47;;;;;;;15.04;73.89;102100.75;692985;28;23458;-67
2021/09/02 00:46:10;;;;;;;8.25;7.35;;;;;;;15.03;73.66;102098.19;693033;28;23471;-67
2021/09/02 00:46:31;;;;;;;8.48;7.57;;;;;;;15.01;73.77;102089.38;689501;28;115212;-67
2021/09/02 00:46:52;;;;;;;8.30;7.50;;;;;;;15.00;73.80;102095.81;691985;28;44381;-66
2021/09/02 00:47:15;;;;;;;8.20;7.40;;;;;;;15.00;73.79;102098.53;692136;28;46389;-67
2021/09/02 00:47:37;;;;;;;8.25;7.43;;;;;;;15.00;74.02;102101.25;691865;28;46339;-66
2021/09/02 00:47:58;;;;;;;8.23;7.43;;;;;;;14.99;74.12;102100.41;692000;28;44361;-67
2021/09/02 00:48:19;;;;;;;8.10;7.30;;;;;;;15.00;73.87;102101.25;692474;28;22628;-67
2021/09/02 00:48:42;;;;;;;8.87;7.60;;;;;;;14.99;73.92;102100.41;692259;28;46373;-66
2021/09/02 00:49:04;;;;;;;8.70;7.80;;;;;;;14.99;73.99;102100.41;691060;28;69195;-67
2021/09/02 00:49:25;;;;;;;9.77;8.00;;;;;;;14.98;74.01;102104.16;691357;28;46274;-67
2021/09/02 00:49:46;;;;;;;8.88;7.53;;;;;;;14.98;73.90;102098.72;693003;28;23420;-66
2021/09/02 00:50:08;;;;;;;8.27;7.47;;;;;;;14.99;73.85;102096.84;692919;28;23623;-67
2021/09/02 00:50:30;;;;;;;8.23;7.53;;;;;;;15.00;73.87;102098.53;692285;28;43752;-67
2021/09/02 00:50:52;;;;;;;10.98;7.60;;;;;;;15.01;74.15;102106.53;691963;28;44373;-66
2021/09/02 00:51:14;;;;;;;8.60;7.75;;;;;;;15.02;74.02;102105.50;691033;28;44487;-67
2021/09/02 00:51:35;;;;;;;8.63;7.78;;;;;;;14.97;73.92;102094.31;691939;28;45248;-67
2021/09/02 00:51:59;;;;;;;8.23;7.38;;;;;;;15.02;73.96;102099.22;692664;28;24175;-67
2021/09/02 00:52:21;;;;;;;8.40;7.60;;;;;;;15.02;73.92;102100.06;690501;28;93779;-67
2021/09/02 00:52:44;;;;;;;7.82;7.10;;;;;;;15.03;74.23;102099.06;690171;28;92267;-68
2021/09/02 00:53:07;;;;;;;8.77;7.93;;;;;;;15.03;74.10;102103.63;692479;28;22249;-67
2021/09/02 00:53:30;;;;;;;9.10;7.43;;;;;;;15.05;74.09;102104.34;690743;28;69149;-66
2021/09/02 00:53:52;;;;;;;8.23;7.43;;;;;;;15.07;74.09;102105.00;690819;28;69463;-66
2021/09/02 00:54:13;;;;;;;8.10;7.30;;;;;;;15.06;74.03;102096.00;691942;28;46487;-67
2021/09/02 00:54:35;;;;;;;8.00;7.22;;;;;;;15.08;74.10;102102.09;692993;28;21508;-67
2021/09/02 00:54:58;;;;;;;8.23;7.32;;;;;;;15.09;74.06;102100.22;691269;28;43990;-67
2021/09/02 00:55:19;;;;;;;8.23;7.18;;;;;;;15.10;73.92;102101.94;690963;28;69506;-67
2021/09/02 00:55:42;;;;;;;9.27;7.78;;;;;;;15.10;73.90;102101.94;692957;28;21301;-67
2021/09/02 00:56:04;;;;;;;9.60;7.75;;;;;;;15.13;74.13;102107.03;691400;28;69431;-66
2021/09/02 00:56:27;;;;;;;8.57;7.78;;;;;;;15.13;73.96;102105.13;692033;28;46219;-67
2021/09/02 00:56:48;;;;;;;7.90;7.20;;;;;;;15.13;74.26;102099.69;690045;28;69407;-67
2021/09/02 00:57:11;;;;;;;7.80;7.10;;;;;;;15.16;73.89;102103.09;692643;28;22408;-66
2021/09/02 00:57:33;;;;;;;8.23;7.45;;;;;;;15.17;73.94;102107.50;691283;28;69346;-66
2021/09/02 00:57:54;;;;;;;9.73;7.30;;;;;;;15.17;73.66;102104.78;692107;28;22399;-67
2021/09/02 00:58:18;;;;;;;9.70;7.50;;;;;;;15.18;73.78;102098.34;691296;28;44353;-67
2021/09/02 00:58:40;;;;;;;8.10;7.35;;;;;;;15.16;73.71;102103.09;689029;28;115232;-66
2021/09/02 00:59:01;;;;;;;8.00;7.30;;;;;;;15.20;73.74;102105.28;692052;28;45279;-68
2021/09/02 00:59:24;;;;;;;8.40;7.60;;;;;;;15.20;73.75;102102.56;692700;28;23459;-66
2021/09/02 00:59:48;;;;;;;7.85;7.15;;;;;;;15.21;73.71;102101.56;691046;28;67334;-66
2021/09/02 01:00:13;;;;;;;9.23;7.20;;;;;;;15.18;73.59;102101.91;689427;28;67505;-66
2021/09/02 01:00:34;;;;;;;8.07;7.15;;;;;;;15.22;73.61;102107.84;688091;28;138107;-67
2021/09/02 01:00:56;;;;;;;8.35;7.50;;;;;;;15.22;73.57;102110.56;692889;28;23315;-66
2021/09/02 01:01:17;;;;;;;7.90;7.10;;;;;;;15.21;73.39;102103.44;691013;28;47069;-66
2021/09/02 01:01:38;;;;;;;9.45;7.22;;;;;;;15.21;73.54;102109.72;692002;28;22259;-67
2021/09/02 01:01:59;;;;;;;8.15;7.10;;;;;;;15.22;73.46;102107.84;692966;28;24236;-67
2021/09/02 01:02:21;;;;;;;8.35;7.50;;;;;;;15.22;73.38;102103.25;692557;28;22589;-67
2021/09/02 01:02:44;;;;;;;8.20;7.40;;;;;;;15.23;73.57;102106.81;691511;28;46308;-67
2021/09/02 01:03:05;;;;;;;8.00;7.30;;;;;;;15.20;73.36;102099.84;691368;28;69423;-66
2021/09/02 01:03:27;;;;;;;8.07;7.28;;;;;;;15.21;73.51;102100.72;691337;28;23453;-67
2021/09/02 01:03:49;;;;;;;8.50;7.60;;;;;;;15.22;73.22;102099.66;691791;28;46280;-66
2021/09/02 01:04:10;;;;;;;8.32;7.55;;;;;;;15.21;73.41;102101.56;692816;28;21544;-67
2021/09/02 01:04:31;;;;;;;8.27;7.47;;;;;;;15.21;73.34;102107.00;692139;28;46322;-66
2021/09/02 01:04:53;;;;;;;8.07;7.18;;;;;;;15.22;73.51;102102.38;692965;28;23626;-66
2021/09/02 01:05:17;;;;;;;7.70;7.00;;;;;;;15.23;73.38;102104.94;690584;28;45240;-67
2021/09/02 01:05:38;;;;;;;8.02;7.25;;;;;;;15.25;73.37;102104.75;690067;28;69373;-66
2021/09/02 01:05:59;;;;;;;8.05;7.30;;;;;;;15.25;73.62;102104.75;692947;28;21491;-66
2021/09/02 01:06:22;;;;;;;7.85;7.05;;;;;;;15.27;73.43;102102.75;692057;28;21533;-67
2021/09/02 01:06:45;;;;;;;9.93;7.45;;;;;;;15.27;73.51;102100.84;691054;28;68410;-66
2021/09/02 01:07:07;;;;;;;10.35;7.30;;;;;;;15.28;73.30;102104.41;690488;28;92361;-66
2021/09/02 01:07:30;;;;;;;10.68;7.28;;;;;;;15.27;73.32;102102.75;692886;28;21489;-66
2021/09/02 01:07:52;;;;;;;8.05;7.25;;;;;;;15.29;73.35;102106.97;690377;28;70385;-68
2021/09/02 01:08:14;;;;;;;8.13;7.32;;;;;;;15.29;73.30;102104.25;691814;28;46357;-66
2021/09/02 01:08:35;;;;;;;7.72;6.93;;;;;;;15.28;73.13;102097.13;692390;28;26617;-67
2021/09/02 01:08:56;;;;;;;8.00;7.20;;;;;;;15.29;73.29;102101.53;692779;28;22350;-67
2021/09/02 01:09:17;;;;;;;8.23;7.43;;;;;;;15.29;73.10;102104.25;691696;28;45409;-67
2021/09/02 01:09:41;;;;;;;7.90;7.10;;;;;;;15.29;73.29;102100.69;692618;28;22368;-67
2021/09/02 01:10:04;;;;;;;8.30;7.50;;;;;;;15.29;73.09;102106.97;691007;28;69467;-67
2021/09/02 01:10:25;;;;;;;8.07;7.28;;;;;;;15.29;73.20;102103.41;690136;28;67263;-67
2021/09/02 01:10:49;;;;;;;7.60;6.90;;;;;;;15.29;73.25;102096.06;692724;28;23487;-66
2021/09/02 01:11:11;;;;;;;7.85;7.05;;;;;;;15.31;73.27;102099.50;689780;28;92231;-67
2021/09/02 01:11:33;;;;;;;8.00;7.30;;;;;;;15.31;73.13;102104.94;691568;28;46545;-67
2021/09/02 01:11:55;;;;;;;8.32;7.53;;;;;;;15.30;73.17;102094.22;691294;28;46463;-67
2021/09/02 01:12:31;;;;;;;8.25;7.45;;;;;;;15.31;73.26;102099.50;691407;28;44139;-67
2021/09/02 01:12:52;;;;;;;8.43;7.25;;;;;;;15.31;72.94;102096.78;688007;28;137667;-67
2021/09/02 01:13:13;;;;;;;8.30;7.50;;;;;;;15.32;73.09;102103.88;692693;28;23423;-66
2021/09/02 01:13:35;;;;;;;8.38;7.43;;;;;;;15.32;73.18;102101.16;692303;28;22458;-67
2021/09/02 01:13:56;;;;;;;8.25;7.43;;;;;;;15.33;72.92;102102.03;691873;28;44410;-67
2021/09/02 01:14:17;;;;;;;8.40;7.28;;;;;;;15.31;72.83;102102.22;692553;28;22368;-66
2021/09/02 01:14:38;;;;;;;7.60;6.90;;;;;;;15.33;73.08;102102.03;692014;28;44397;-66
2021/09/02 01:15:01;;;;;;;8.15;7.20;;;;;;;15.33;72.92;102102.03;692978;28;22397;-68
2021/09/02 01:15:27;;;;;;;7.63;7.00;;;;;;;15.34;73.17;102101.00;691500;28;45770;-67
2021/09/02 01:15:49;;;;;;;7.97;7.18;;;;;;;15.34;72.98;102108.31;688605;28;136354;-67
2021/09/02 01:16:10;;;;;;;7.80;7.00;;;;;;;15.32;73.15;102100.34;691680;28;46318;-66
2021/09/02 01:16:31;;;;;;;7.97;7.18;;;;;;;15.32;73.19;102097.59;692550;28;22392;-67
2021/09/02 01:16:56;;;;;;;7.97;7.28;;;;;;;15.35;73.06;102101.88;692309;28;21349;-66
2021/09/02 01:17:17;;;;;;;8.73;7.38;;;;;;;15.35;73.06;102099.16;689441;28;113583;-66
2021/09/02 01:17:39;;;;;;;7.85;7.10;;;;;;;15.35;73.09;102097.25;692076;28;21279;-67
2021/09/02 01:18:00;;;;;;;7.72;7.03;;;;;;;15.36;73.21;102098.97;691738;28;46538;-67
2021/09/02 01:18:23;;;;;;;7.63;6.93;;;;;;;15.37;73.13;102100.66;692444;28;23461;-66
2021/09/02 01:18:44;;;;;;;7.85;7.05;;;;;;;15.36;73.11;102101.69;690736;28;67493;-67
2021/09/02 01:19:05;;;;;;;8.50;7.28;;;;;;;15.38;72.94;102101.50;692077;28;22404;-67
2021/09/02 01:19:26;;;;;;;8.48;7.25;;;;;;;15.39;72.98;102089.59;691758;28;21515;-66
2021/09/02 01:19:47;;;;;;;7.80;7.10;;;;;;;15.36;72.90;102096.25;692525;28;22389;-67
2021/09/02 01:20:11;;;;;;;8.00;7.20;;;;;;;15.38;72.76;102087.91;691896;28;21544;-67
2021/09/02 01:20:32;;;;;;;8.23;7.07;;;;;;;15.38;72.84;102098.78;690252;28;91924;-66
2021/09/02 01:20:53;;;;;;;9.52;7.50;;;;;;;15.40;72.88;102089.41;691360;28;45293;-67
2021/09/02 01:21:15;;;;;;;8.82;7.40;;;;;;;15.40;72.99;102089.41;692073;28;22324;-67
2021/09/02 01:21:36;;;;;;;7.78;7.07;;;;;;;15.41;72.77;102098.44;691088;28;66384;-67
2021/09/02 01:21:57;;;;;;;8.40;7.35;;;;;;;15.41;72.73;102101.16;691952;28;22345;-67
2021/09/02 01:22:18;;;;;;;7.50;6.80;;;;;;;15.41;72.96;102091.13;692322;28;23486;-67
2021/09/02 01:22:40;;;;;;;7.50;6.75;;;;;;;15.40;72.83;102085.84;692302;28;22422;-67
2021/09/02 01:23:04;;;;;;;7.97;6.80;;;;;;;15.42;72.75;102087.38;691933;28;45922;-66
2021/09/02 01:23:26;;;;;;;7.55;6.82;;;;;;;15.40;72.89;102089.41;690354;28;92288;-65
2021/09/02 01:23:49;;;;;;;7.90;7.10;;;;;;;15.42;72.79;102087.38;690422;28;45263;-67
2021/09/02 01:24:10;;;;;;;8.13;7.32;;;;;;;15.41;72.87;102093.00;691840;28;45244;-67
2021/09/02 01:24:31;;;;;;;8.07;7.38;;;;;;;15.41;72.92;102087.56;692516;28;22833;-67
2021/09/02 01:24:53;;;;;;;7.85;7.00;;;;;;;15.42;72.77;102098.28;692650;28;22390;-67
2021/09/02 01:25:17;;;;;;;7.82;7.07;;;;;;;15.41;72.73;102095.72;691185;28;69449;-67
2021/09/02 01:25:41;;;;;;;7.93;7.03;;;;;;;15.39;72.66;102087.72;690877;28;69356;-67
2021/09/02 01:26:15;;;;;;;8.20;7.03;;;;;;;15.41;72.87;102093.00;689711;28;116054;-68
2021/09/02 01:26:36;;;;;;;7.60;6.80;;;;;;;15.39;72.95;102085.00;688807;28;137879;-67
2021/09/02 01:26:57;;;;;;;8.05;7.25;;;;;;;15.40;72.89;102089.41;692683;28;2156;-67
2021/09/02 01:27:19;;;;;;;7.68;6.97;;;;;;;15.38;72.85;102086.03;692260;28;22385;-67
2021/09/02 01:27:45;;;;;;;7.40;6.70;;;;;;;15.39;72.78;102089.59;690554;28;46399;-68
2021/09/02 01:28:08;;;;;;;7.95;7.22;;;;;;;15.38;72.91;102090.63;688254;28;139538;-67
2021/09/02 01:28:30;;;;;;;7.95;7.25;;;;;;;15.38;72.94;102086.03;689997;28;67538;-67
2021/09/02 01:28:52;;;;;;;8.70;7.18;;;;;;;15.38;72.96;102091.47;690289;28;69833;-66
2021/09/02 01:29:14;;;;;;;7.95;7.15;;;;;;;15.39;72.83;102089.59;692727;28;23377;-67
2021/09/02 01:29:35;;;;;;;7.72;7.00;;;;;;;15.38;72.98;102091.47;691615;28;44402;-67
2021/09/02 01:29:57;;;;;;;8.30;7.50;;;;;;;15.39;72.96;102081.41;692622;28;23477;-67
2021/09/02 01:30:18;;;;;;;8.27;7.32;;;;;;;15.38;72.84;102093.34;691522;28;46328;-66
2021/09/02 01:30:41;;;;;;;8.07;7.28;;;;;;;15.36;72.89;102081.75;691648;28;46345;-67
2021/09/02 01:31:02;;;;;;;8.75;7.50;;;;;;;15.38;72.84;102088.75;690549;28;67503;-67
2021/09/02 01:31:24;;;;;;;8.75;7.43;;;;;;;15.36;72.87;102088.09;692474;28;22415;-67
2021/09/02 01:31:45;;;;;;;7.70;6.90;;;;;;;15.36;72.86;102093.53;692956;28;21470;-67
2021/09/02 01:32:06;;;;;;;7.22;6.53;;;;;;;15.35;73.05;102085.53;692307;28;22233;-65
2021/09/02 01:32:30;;;;;;;7.43;6.78;;;;;;;15.36;72.93;102081.75;691805;28;45236;-67
2021/09/02 01:32:52;;;;;;;7.72;6.72;;;;;;;15.35;73.08;102083.66;691079;28;66875;-68
2021/09/02 01:33:15;;;;;;;7.47;6.67;;;;;;;15.33;73.13;102093.88;689993;28;65485;-67
2021/09/02 01:33:36;;;;;;;7.45;6.75;;;;;;;15.34;73.12;102094.72;689668;28;67515;-66
2021/09/02 01:33:58;;;;;;;7.20;6.50;;;;;;;15.31;73.03;102096.78;691184;28;22250;-66
2021/09/02 01:34:19;;;;;;;7.07;6.45;;;;;;;15.33;73.11;102091.16;690342;28;45260;-67
2021/09/02 01:34:40;;;;;;;7.28;6.50;;;;;;;15.32;73.06;102097.59;689850;28;23294;-67
2021/09/02 01:35:03;;;;;;;7.90;7.13;;;;;;;15.32;73.16;102098.44;690171;28;22414;-67
2021/09/02 01:35:26;;;;;;;7.57;6.88;;;;;;;15.32;73.10;102100.34;690722;28;69830;-66
2021/09/02 01:35:47;;;;;;;7.53;6.82;;;;;;;15.32;73.18;102092.16;690809;28;69379;-68
2021/09/02 01:36:08;;;;;;;7.07;6.38;;;;;;;15.33;73.09;102099.31;692777;28;21229;-67
2021/09/02 01:36:29;;;;;;;6.97;6.38;;;;;;;15.32;73.38;102101.16;692683;28;22481;-68
2021/09/02 01:36:51;;;;;;;7.50;6.80;;;;;;;15.32;73.39;102093.00;692595;28;21545;-67
2021/09/02 01:37:12;;;;;;;7.25;6.57;;;;;;;15.34;73.45;102102.88;692021;28;46302;-67
2021/09/02 01:37:38;;;;;;;7.07;6.43;;;;;;;15.32;73.17;102093.00;692891;28;20859;-66
2021/09/02 01:38:01;;;;;;;7.40;6.80;;;;;;;15.34;73.22;102094.72;688642;28;136461;-67
2021/09/02 01:38:22;;;;;;;7.68;6.88;;;;;;;15.32;73.27;102086.72;691429;28;69412;-67
2021/09/02 01:38:45;;;;;;;7.20;6.55;;;;;;;15.31;73.21;102083.16;691817;28;21531;-67
2021/09/02 01:39:06;;;;;;;7.80;7.00;;;;;;;15.31;73.33;102082.28;691072;28;69698;-66
2021/09/02 01:39:27;;;;;;;7.88;7.07;;;;;;;15.32;73.39;102090.28;692869;28;22391;-69
2021/09/02 01:39:49;;;;;;;7.28;6.57;;;;;;;15.34;73.39;102089.28;692915;28;22412;-67
2021/09/02 01:40:13;;;;;;;7.00;6.25;;;;;;;15.35;73.64;102082.81;690792;28;45449;-66
2021/09/02 01:40:36;;;;;;;8.00;7.15;;;;;;;15.34;73.45;102090.09;689845;28;90731;-67
2021/09/02 01:40:58;;;;;;;8.85;6.97;;;;;;;15.35;73.53;102082.81;691186;28;69377;-67
2021/09/02 01:41:19;;;;;;;8.52;6.93;;;;;;;15.36;73.47;102089.94;690929;28;46298;-67
2021/09/02 01:41:40;;;;;;;7.60;6.88;;;;;;;15.38;73.35;102087.91;692624;28;22415;-66
2021/09/02 01:42:01;;;;;;;8.98;6.60;;;;;;;15.38;73.31;102085.19;691950;28;22296;-67
2021/09/02 01:42:23;;;;;;;6.68;6.05;;;;;;;15.39;73.56;102087.72;692588;28;23301;-67
2021/09/02 01:42:45;;;;;;;6.90;6.30;;;;;;;15.40;73.57;102092.13;692067;28;46342;-67
2021/09/02 01:43:08;;;;;;;7.30;6.60;;;;;;;15.39;73.44;102082.28;691577;28;43726;-67